METAR Data
IDs: Format: Raw Decoded Include TAF

Data at: 2054 UTC 18 Apr 2021

ETNW 182020Z AUTO 08003KT 5000 // ////// 10/10 Q1021 ///